Terminal Aerodrome Forecast
Issued by NWS Green Bay, WI

Home | Current Version | Previous Version | Text Only | Print | Product List | Glossary Off
Versions: 1 2 3 4 5 6 7 8 9 10 11 12 13 14 15 16 17 18 19

000
FTUS43 KGRB 172335
TAFGRB
TAF
KGRB 172335Z 1800/1824 29005KT P6SM SCT250
     FM181100 05008G14KT P6SM BKN250
     FM181500 08009KT P6SM BKN250
     FM182300 08007KT P6SM OVC100=

USA.gov is the U.S. government's official web portal to all federal, state and local government web resources and services.